sensor_id;sensor_type;location;lat;lon;timestamp;pressure;altitude;pressure_sealevel;temperature;humidity
34925;BME280;21130;51.728;8.748;2023-07-20T00:01:50;100150.22;;;14.25;100.00
34925;BME280;21130;51.728;8.748;2023-07-20T00:04:16;100147.69;;;14.23;100.00
34925;BME280;21130;51.728;8.748;2023-07-20T00:06:43;100136.78;;;14.17;100.00
34925;BME280;21130;51.728;8.748;2023-07-20T00:09:10;100135.97;;;14.16;100.00
34925;BME280;21130;51.728;8.748;2023-07-20T00:11:39;100137.66;;;14.07;100.00
34925;BME280;21130;51.728;8.748;2023-07-20T00:14:06;100152.44;;;14.08;100.00
34925;BME280;21130;51.728;8.748;2023-07-20T00:16:33;100147.09;;;14.06;100.00
34925;BME280;21130;51.728;8.748;2023-07-20T00:18:59;100146.84;;;13.97;100.00
34925;BME280;21130;51.728;8.748;2023-07-20T00:21:26;100149.63;;;13.97;100.00
34925;BME280;21130;51.728;8.748;2023-07-20T00:23:52;100144.88;;;13.98;100.00
34925;BME280;21130;51.728;8.748;2023-07-20T00:26:19;100148.47;;;13.93;100.00
34925;BME280;21130;51.728;8.748;2023-07-20T00:28:48;100151.84;;;13.95;100.00
34925;BME280;21130;51.728;8.748;2023-07-20T00:31:15;100142.91;;;13.93;100.00
34925;BME280;21130;51.728;8.748;2023-07-20T00:33:41;100142.34;;;13.96;100.00
34925;BME280;21130;51.728;8.748;2023-07-20T00:36:07;100139.00;;;13.94;100.00
34925;BME280;21130;51.728;8.748;2023-07-20T00:38:58;100140.69;;;13.90;100.00
34925;BME280;21130;51.728;8.748;2023-07-20T00:41:25;100140.66;;;13.85;100.00
34925;BME280;21130;51.728;8.748;2023-07-20T00:43:55;100142.31;;;13.86;100.00
34925;BME280;21130;51.728;8.748;2023-07-20T00:46:23;100146.25;;;13.90;100.00
34925;BME280;21130;51.728;8.748;2023-07-20T00:48:51;100140.69;;;13.90;100.00
34925;BME280;21130;51.728;8.748;2023-07-20T00:51:18;100134.53;;;13.93;100.00
34925;BME280;21130;51.728;8.748;2023-07-20T00:53:45;100148.47;;;13.93;100.00
34925;BME280;21130;51.728;8.748;2023-07-20T00:56:12;100139.56;;;13.91;100.00
34925;BME280;21130;51.728;8.748;2023-07-20T00:58:38;100140.13;;;13.93;100.00
34925;BME280;21130;51.728;8.748;2023-07-20T01:01:06;100137.59;;;13.87;100.00
34925;BME280;21130;51.728;8.748;2023-07-20T01:03:33;100142.34;;;13.91;100.00
34925;BME280;21130;51.728;8.748;2023-07-20T01:06:09;100135.09;;;13.95;100.00
34925;BME280;21130;51.728;8.748;2023-07-20T01:08:44;100141.81;;;13.99;100.00
34925;BME280;21130;51.728;8.748;2023-07-20T01:11:18;100139.88;;;14.00;100.00
34925;BME280;21130;51.728;8.748;2023-07-20T01:13:50;100140.13;;;14.03;100.00
34925;BME280;21130;51.728;8.748;2023-07-20T01:16:18;100143.22;;;14.07;100.00
34925;BME280;21130;51.728;8.748;2023-07-20T01:18:45;100140.97;;;14.04;100.00
34925;BME280;21130;51.728;8.748;2023-07-20T01:21:16;100147.41;;;14.04;100.00
34925;BME280;21130;51.728;8.748;2023-07-20T01:24:05;100144.06;;;14.08;100.00
34925;BME280;21130;51.728;8.748;2023-07-20T01:26:54;100137.91;;;14.11;100.00
34925;BME280;21130;51.728;8.748;2023-07-20T01:29:41;100134.56;;;14.09;100.00
34925;BME280;21130;51.728;8.748;2023-07-20T01:32:14;100139.03;;;14.10;100.00
34925;BME280;21130;51.728;8.748;2023-07-20T01:34:44;100143.50;;;14.16;100.00
34925;BME280;21130;51.728;8.748;2023-07-20T01:37:11;100133.16;;;14.16;100.00
34925;BME280;21130;51.728;8.748;2023-07-20T01:39:40;100135.97;;;14.16;100.00
34925;BME280;21130;51.728;8.748;2023-07-20T01:42:07;100139.31;;;14.18;100.00
34925;BME280;21130;51.728;8.748;2023-07-20T01:44:34;100139.03;;;14.15;100.00
34925;BME280;21130;51.728;8.748;2023-07-20T01:47:02;100142.38;;;14.17;100.00
34925;BME280;21130;51.728;8.748;2023-07-20T01:49:30;100144.63;;;14.20;100.00
34925;BME280;21130;51.728;8.748;2023-07-20T01:51:57;100136.53;;;14.18;100.00
34925;BME280;21130;51.728;8.748;2023-07-20T01:54:24;100142.66;;;14.20;100.00
34925;BME280;21130;51.728;8.748;2023-07-20T01:56:51;100132.34;;;14.16;100.00
34925;BME280;21130;51.728;8.748;2023-07-20T01:59:17;100139.56;;;14.12;100.00
34925;BME280;21130;51.728;8.748;2023-07-20T02:01:43;100141.84;;;14.15;100.00
34925;BME280;21130;51.728;8.748;2023-07-20T02:04:10;100138.47;;;14.13;100.00
34925;BME280;21130;51.728;8.748;2023-07-20T02:06:38;100134.56;;;14.09;100.00
34925;BME280;21130;51.728;8.748;2023-07-20T02:09:04;100121.72;;;14.02;100.00
34925;BME280;21130;51.728;8.748;2023-07-20T02:11:31;100133.72;;;13.98;100.00
34925;BME280;21130;51.728;8.748;2023-07-20T02:13:57;100121.16;;;13.90;100.00
34925;BME280;21130;51.728;8.748;2023-07-20T02:16:24;100126.72;;;13.90;100.00
34925;BME280;21130;51.728;8.748;2023-07-20T02:18:50;100129.50;;;13.85;100.00
34925;BME280;21130;51.728;8.748;2023-07-20T02:21:17;100131.72;;;13.83;100.00
34925;BME280;21130;51.728;8.748;2023-07-20T02:23:45;100129.78;;;13.83;100.00
34925;BME280;21130;51.728;8.748;2023-07-20T02:26:11;100135.91;;;13.86;100.00
34925;BME280;21130;51.728;8.748;2023-07-20T02:28:39;100133.69;;;13.82;100.00
34925;BME280;21130;51.728;8.748;2023-07-20T02:31:06;100137.88;;;13.90;100.00
34925;BME280;21130;51.728;8.748;2023-07-20T02:33:33;100135.09;;;13.85;100.00
34925;BME280;21130;51.728;8.748;2023-07-20T02:35:59;100132.00;;;13.92;100.00
34925;BME280;21130;51.728;8.748;2023-07-20T02:38:25;100129.50;;;13.85;100.00
34925;BME280;21130;51.728;8.748;2023-07-20T02:40:54;100132.31;;;13.85;100.00
34925;BME280;21130;51.728;8.748;2023-07-20T02:43:21;100130.59;;;13.84;100.00
34925;BME280;21130;51.728;8.748;2023-07-20T02:45:47;100135.09;;;13.85;100.00
34925;BME280;21130;51.728;8.748;2023-07-20T02:48:14;100132.84;;;13.82;100.00
34925;BME280;21130;51.728;8.748;2023-07-20T02:50:40;100132.84;;;13.82;100.00
34925;BME280;21130;51.728;8.748;2023-07-20T02:53:07;100137.88;;;13.80;100.00
34925;BME280;21130;51.728;8.748;2023-07-20T02:55:33;100130.59;;;13.79;100.00
34925;BME280;21130;51.728;8.748;2023-07-20T02:58:01;100136.72;;;13.76;100.00
34925;BME280;21130;51.728;8.748;2023-07-20T03:00:27;100132.25;;;13.70;100.00
34925;BME280;21130;51.728;8.748;2023-07-20T03:02:54;100128.91;;;13.68;100.00
34925;BME280;21130;51.728;8.748;2023-07-20T03:05:21;100127.78;;;13.69;100.00
34925;BME280;21130;51.728;8.748;2023-07-20T03:07:50;100138.09;;;13.68;100.00
34925;BME280;21130;51.728;8.748;2023-07-20T03:10:17;100134.50;;;13.68;100.00
34925;BME280;21130;51.728;8.748;2023-07-20T03:12:43;100130.56;;;13.69;100.00
34925;BME280;21130;51.728;8.748;2023-07-20T03:15:11;100132.53;;;13.68;100.00
34925;BME280;21130;51.728;8.748;2023-07-20T03:17:38;100129.16;;;13.66;100.00
34925;BME280;21130;51.728;8.748;2023-07-20T03:20:05;100125.56;;;13.66;100.00
34925;BME280;21130;51.728;8.748;2023-07-20T03:22:34;100125.81;;;13.69;100.00
34925;BME280;21130;51.728;8.748;2023-07-20T03:25:00;100130.88;;;13.67;100.00
34925;BME280;21130;51.728;8.748;2023-07-20T03:27:27;100131.13;;;13.71;100.00
34925;BME280;21130;51.728;8.748;2023-07-20T03:29:54;100125.81;;;13.69;100.00
34925;BME280;21130;51.728;8.748;2023-07-20T03:32:22;100118.03;;;13.71;100.00
34925;BME280;21130;51.728;8.748;2023-07-20T03:34:48;100129.75;;;13.73;100.00
34925;BME280;21130;51.728;8.748;2023-07-20T03:37:14;100134.25;;;13.74;100.00
34925;BME280;21130;51.728;8.748;2023-07-20T03:39:41;100132.84;;;13.82;100.00
34925;BME280;21130;51.728;8.748;2023-07-20T03:42:08;100130.91;;;13.82;100.00
34925;BME280;21130;51.728;8.748;2023-07-20T03:44:34;100127.81;;;13.89;100.00
34925;BME280;21130;51.728;8.748;2023-07-20T03:47:01;100141.25;;;13.87;100.00
34925;BME280;21130;51.728;8.748;2023-07-20T03:49:30;100132.00;;;13.87;100.00
34925;BME280;21130;51.728;8.748;2023-07-20T03:51:56;100125.31;;;13.88;100.00
34925;BME280;21130;51.728;8.748;2023-07-20T03:54:23;100123.38;;;13.88;100.00
34925;BME280;21130;51.728;8.748;2023-07-20T03:56:49;100124.19;;;13.89;100.00
34925;BME280;21130;51.728;8.748;2023-07-20T03:59:16;100125.59;;;13.91;100.00
34925;BME280;21130;51.728;8.748;2023-07-20T04:01:42;100123.94;;;14.00;100.00
34925;BME280;21130;51.728;8.748;2023-07-20T04:04:08;100129.53;;;13.95;100.00
34925;BME280;21130;51.728;8.748;2023-07-20T04:06:37;100123.94;;;13.95;100.00
34925;BME280;21130;51.728;8.748;2023-07-20T04:09:03;100137.91;;;14.00;100.00
34925;BME280;21130;51.728;8.748;2023-07-20T04:11:31;100134.84;;;14.02;100.00
34925;BME280;21130;51.728;8.748;2023-07-20T04:13:57;100144.06;;;14.02;100.00
34925;BME280;21130;51.728;8.748;2023-07-20T04:16:26;100140.13;;;14.09;100.00
34925;BME280;21130;51.728;8.748;2023-07-20T04:18:54;100141.53;;;14.01;100.00
34925;BME280;21130;51.728;8.748;2023-07-20T04:21:21;100145.69;;;13.88;100.00
34925;BME280;21130;51.728;8.748;2023-07-20T04:23:49;100144.81;;;13.72;100.00
34925;BME280;21130;51.728;8.748;2023-07-20T04:26:15;100148.41;;;13.63;100.00
34925;BME280;21130;51.728;8.748;2023-07-20T04:28:42;100145.88;;;13.61;100.00
34925;BME280;21130;51.728;8.748;2023-07-20T04:31:12;100146.69;;;13.56;100.00
34925;BME280;21130;51.728;8.748;2023-07-20T04:33:39;100142.50;;;13.54;100.00
34925;BME280;21130;51.728;8.748;2023-07-20T04:36:06;100151.75;;;13.59;100.00
34925;BME280;21130;51.728;8.748;2023-07-20T04:38:34;100153.44;;;13.60;100.00
34925;BME280;21130;51.728;8.748;2023-07-20T04:41:02;100154.00;;;13.63;100.00
34925;BME280;21130;51.728;8.748;2023-07-20T04:43:29;100155.97;;;13.67;100.00
34925;BME280;21130;51.728;8.748;2023-07-20T04:45:59;100160.13;;;13.65;100.00
34925;BME280;21130;51.728;8.748;2023-07-20T04:48:26;100164.59;;;13.71;100.00
34925;BME280;21130;51.728;8.748;2023-07-20T04:50:52;100162.66;;;13.71;100.00
34925;BME280;21130;51.728;8.748;2023-07-20T04:53:18;100164.06;;;13.79;100.00
34925;BME280;21130;51.728;8.748;2023-07-20T04:55:49;100168.28;;;13.87;100.00
34925;BME280;21130;51.728;8.748;2023-07-20T04:58:18;100167.44;;;13.91;100.00
34925;BME280;21130;51.728;8.748;2023-07-20T05:00:45;100177.78;;;13.96;100.00
34925;BME280;21130;51.728;8.748;2023-07-20T05:03:11;100176.13;;;14.00;100.00
34925;BME280;21130;51.728;8.748;2023-07-20T05:05:37;100174.72;;;13.97;100.00
34925;BME280;21130;51.728;8.748;2023-07-20T05:08:05;100173.91;;;14.02;100.00
34925;BME280;21130;51.728;8.748;2023-07-20T05:10:31;100178.63;;;14.01;100.00
34925;BME280;21130;51.728;8.748;2023-07-20T05:12:58;100176.09;;;13.90;100.00
34925;BME280;21130;51.728;8.748;2023-07-20T05:15:26;100182.53;;;13.90;100.00
34925;BME280;21130;51.728;8.748;2023-07-20T05:17:53;100177.50;;;13.87;100.00
34925;BME280;21130;51.728;8.748;2023-07-20T05:20:19;100175.81;;;13.86;100.00
34925;BME280;21130;51.728;8.748;2023-07-20T05:22:46;100181.94;;;13.88;100.00
34925;BME280;21130;51.728;8.748;2023-07-20T05:25:12;100182.78;;;13.89;100.00
34925;BME280;21130;51.728;8.748;2023-07-20T05:27:40;100186.97;;;13.91;100.00
34925;BME280;21130;51.728;8.748;2023-07-20T05:30:07;100183.34;;;13.91;100.00
34925;BME280;21130;51.728;8.748;2023-07-20T05:32:35;100176.97;;;14.00;100.00
34925;BME280;21130;51.728;8.748;2023-07-20T05:35:01;100181.16;;;14.03;100.00
34925;BME280;21130;51.728;8.748;2023-07-20T05:37:28;100177.25;;;14.14;100.00
34925;BME280;21130;51.728;8.748;2023-07-20T05:39:54;100188.41;;;14.09;100.00
34925;BME280;21130;51.728;8.748;2023-07-20T05:42:21;100186.47;;;14.10;100.00
34925;BME280;21130;51.728;8.748;2023-07-20T05:44:48;100196.50;;;14.05;100.00
34925;BME280;21130;51.728;8.748;2023-07-20T05:47:15;100195.63;;;13.90;100.00
34925;BME280;21130;51.728;8.748;2023-07-20T05:49:43;100199.78;;;13.77;100.00
34925;BME280;21130;51.728;8.748;2023-07-20T05:52:09;100199.78;;;13.77;100.00
34925;BME280;21130;51.728;8.748;2023-07-20T05:54:36;100208.16;;;13.82;100.00
34925;BME280;21130;51.728;8.748;2023-07-20T05:57:02;100213.44;;;13.78;100.00
34925;BME280;21130;51.728;8.748;2023-07-20T05:59:29;100221.28;;;13.87;100.00
34925;BME280;21130;51.728;8.748;2023-07-20T06:01:55;100213.19;;;13.85;100.00
34925;BME280;21130;51.728;8.748;2023-07-20T06:04:22;100209.03;;;13.93;100.00
34925;BME280;21130;51.728;8.748;2023-07-20T06:06:50;100207.66;;;13.95;100.00
34925;BME280;21130;51.728;8.748;2023-07-20T06:09:17;100209.06;;;14.03;100.00
34925;BME280;21130;51.728;8.748;2023-07-20T06:11:43;100212.41;;;14.05;100.00
34925;BME280;21130;51.728;8.748;2023-07-20T06:14:09;100205.69;;;14.01;100.00
34925;BME280;21130;51.728;8.748;2023-07-20T06:16:56;100213.84;;;14.23;100.00
34925;BME280;21130;51.728;8.748;2023-07-20T06:19:43;100220.84;;;14.31;100.00
34925;BME280;21130;51.728;8.748;2023-07-20T06:22:12;100225.28;;;14.32;100.00
34925;BME280;21130;51.728;8.748;2023-07-20T06:24:39;100221.41;;;14.33;100.00
34925;BME280;21130;51.728;8.748;2023-07-20T06:27:05;100227.81;;;14.38;100.00
34925;BME280;21130;51.728;8.748;2023-07-20T06:29:32;100230.94;;;14.52;100.00
34925;BME280;21130;51.728;8.748;2023-07-20T06:31:58;100233.44;;;14.54;100.00
34925;BME280;21130;51.728;8.748;2023-07-20T06:34:25;100228.97;;;14.53;100.00
34925;BME280;21130;51.728;8.748;2023-07-20T06:36:51;100229.56;;;14.70;100.00
34925;BME280;21130;51.728;8.748;2023-07-20T06:39:19;100231.78;;;14.83;100.00
34925;BME280;21130;51.728;8.748;2023-07-20T06:41:46;100228.97;;;15.04;100.00
34925;BME280;21130;51.728;8.748;2023-07-20T06:44:13;100225.59;;;15.07;100.00
34925;BME280;21130;51.728;8.748;2023-07-20T06:46:39;100234.50;;;15.34;100.00
34925;BME280;21130;51.728;8.748;2023-07-20T06:49:06;100233.97;;;15.32;100.00
34925;BME280;21130;51.728;8.748;2023-07-20T06:51:34;100233.94;;;15.48;100.00
34925;BME280;21130;51.728;8.748;2023-07-20T06:54:01;100222.81;;;15.12;100.00
34925;BME280;21130;51.728;8.748;2023-07-20T06:56:31;100235.13;;;15.01;100.00
34925;BME280;21130;51.728;8.748;2023-07-20T06:58:58;100240.75;;;14.80;100.00
34925;BME280;21130;51.728;8.748;2023-07-20T07:01:24;100239.34;;;14.67;100.00
34925;BME280;21130;51.728;8.748;2023-07-20T07:03:50;100257.41;;;14.44;100.00
34925;BME280;21130;51.728;8.748;2023-07-20T07:06:17;100249.13;;;14.55;100.00
34925;BME280;21130;51.728;8.748;2023-07-20T07:08:43;100260.28;;;14.55;100.00
34925;BME280;21130;51.728;8.748;2023-07-20T07:11:10;100266.41;;;14.57;100.00
34925;BME280;21130;51.728;8.748;2023-07-20T07:13:37;100266.09;;;14.48;100.00
34925;BME280;21130;51.728;8.748;2023-07-20T07:16:04;100267.28;;;14.62;100.00
34925;BME280;21130;51.728;8.748;2023-07-20T07:18:31;100263.63;;;14.62;100.00
34925;BME280;21130;51.728;8.748;2023-07-20T07:20:57;100269.25;;;14.82;100.00
34925;BME280;21130;51.728;8.748;2023-07-20T07:23:24;100263.34;;;15.09;100.00
34925;BME280;21130;51.728;8.748;2023-07-20T07:25:50;100265.56;;;15.33;100.00
34925;BME280;21130;51.728;8.748;2023-07-20T07:28:17;100262.13;;;15.62;100.00
34925;BME280;21130;51.728;8.748;2023-07-20T07:30:45;100264.56;;;15.94;100.00
34925;BME280;21130;51.728;8.748;2023-07-20T07:33:11;100256.63;;;16.11;100.00
34925;BME280;21130;51.728;8.748;2023-07-20T07:35:38;100266.13;;;16.20;100.00
34925;BME280;21130;51.728;8.748;2023-07-20T07:38:05;100258.63;;;16.06;100.00
34925;BME280;21130;51.728;8.748;2023-07-20T07:40:32;100264.56;;;15.89;100.00
34925;BME280;21130;51.728;8.748;2023-07-20T07:42:58;100268.59;;;16.22;100.00
34925;BME280;21130;51.728;8.748;2023-07-20T07:45:24;100267.63;;;16.47;100.00
34925;BME280;21130;51.728;8.748;2023-07-20T07:47:52;100278.19;;;17.00;100.00
34925;BME280;21130;51.728;8.748;2023-07-20T07:50:19;100265.31;;;17.28;100.00
34925;BME280;21130;51.728;8.748;2023-07-20T07:52:45;100267.72;;;17.40;100.00
34925;BME280;21130;51.728;8.748;2023-07-20T07:55:12;100269.19;;;17.61;100.00
34925;BME280;21130;51.728;8.748;2023-07-20T07:57:38;100272.41;;;17.74;100.00
34925;BME280;21130;51.728;8.748;2023-07-20T08:00:06;100272.41;;;17.98;100.00
34925;BME280;21130;51.728;8.748;2023-07-20T08:02:36;100283.28;;;18.04;100.00
34925;BME280;21130;51.728;8.748;2023-07-20T08:05:05;100284.09;;;17.57;100.00
34925;BME280;21130;51.728;8.748;2023-07-20T08:07:31;100287.97;;;17.02;100.00
34925;BME280;21130;51.728;8.748;2023-07-20T08:09:58;100289.06;;;17.06;100.00
34925;BME280;21130;51.728;8.748;2023-07-20T08:12:25;100292.91;;;16.76;100.00
34925;BME280;21130;51.728;8.748;2023-07-20T08:14:52;100300.16;;;16.43;100.00
34925;BME280;21130;51.728;8.748;2023-07-20T08:17:19;100290.09;;;16.81;100.00
34925;BME280;21130;51.728;8.748;2023-07-20T08:19:46;100287.56;;;17.19;100.00
34925;BME280;21130;51.728;8.748;2023-07-20T08:22:14;100288.19;;;17.40;100.00
34925;BME280;21130;51.728;8.748;2023-07-20T08:24:41;100288.34;;;17.78;100.00
34925;BME280;21130;51.728;8.748;2023-07-20T08:27:08;100294.09;;;18.35;100.00
34925;BME280;21130;51.728;8.748;2023-07-20T08:29:34;100281.53;;;18.51;100.00
34925;BME280;21130;51.728;8.748;2023-07-20T08:32:01;100289.72;;;18.86;100.00
34925;BME280;21130;51.728;8.748;2023-07-20T08:34:28;100289.09;;;18.70;100.00
34925;BME280;21130;51.728;8.748;2023-07-20T08:36:55;100294.50;;;18.28;100.00
34925;BME280;21130;51.728;8.748;2023-07-20T08:39:24;100294.44;;;18.33;100.00
34925;BME280;21130;51.728;8.748;2023-07-20T08:41:50;100294.75;;;18.51;100.00
34925;BME280;21130;51.728;8.748;2023-07-20T08:44:17;100297.25;;;18.90;100.00
34925;BME280;21130;51.728;8.748;2023-07-20T08:46:44;100299.06;;;18.62;100.00
34925;BME280;21130;51.728;8.748;2023-07-20T08:49:11;100296.78;;;18.64;100.00
34925;BME280;21130;51.728;8.748;2023-07-20T08:51:39;100298.69;;;19.07;100.00
34925;BME280;21130;51.728;8.748;2023-07-20T08:54:08;100301.88;;;19.33;100.00
34925;BME280;21130;51.728;8.748;2023-07-20T08:56:38;100305.13;;;19.73;100.00
34925;BME280;21130;51.728;8.748;2023-07-20T08:59:05;100308.25;;;20.13;100.00
34925;BME280;21130;51.728;8.748;2023-07-20T09:01:32;100301.84;;;20.48;100.00
34925;BME280;21130;51.728;8.748;2023-07-20T09:03:59;100306.63;;;20.98;100.00
34925;BME280;21130;51.728;8.748;2023-07-20T09:06:26;100311.31;;;20.80;100.00
34925;BME280;21130;51.728;8.748;2023-07-20T09:08:52;100307.78;;;20.61;100.00
34925;BME280;21130;51.728;8.748;2023-07-20T09:11:22;100300.56;;;21.05;100.00
34925;BME280;21130;51.728;8.748;2023-07-20T09:14:03;100301.66;;;20.81;100.00
34925;BME280;21130;51.728;8.748;2023-07-20T09:16:30;100304.25;;;20.55;100.00
34925;BME280;21130;51.728;8.748;2023-07-20T09:18:57;100304.91;;;20.11;100.00
34925;BME280;21130;51.728;8.748;2023-07-20T09:21:28;100309.59;;;20.43;100.00
34925;BME280;21130;51.728;8.748;2023-07-20T09:23:56;100303.25;;;21.10;100.00
34925;BME280;21130;51.728;8.748;2023-07-20T09:26:23;100301.66;;;20.81;94.19
34925;BME280;21130;51.728;8.748;2023-07-20T09:28:52;100301.06;;;21.29;100.00
34925;BME280;21130;51.728;8.748;2023-07-20T09:31:22;100301.47;;;22.08;89.76
34925;BME280;21130;51.728;8.748;2023-07-20T09:33:52;100293.59;;;22.36;83.37
34925;BME280;21130;51.728;8.748;2023-07-20T09:36:19;100304.56;;;22.29;79.27
34925;BME280;21130;51.728;8.748;2023-07-20T09:38:46;100296.06;;;21.89;67.60
34925;BME280;21130;51.728;8.748;2023-07-20T09:41:13;100298.19;;;21.74;91.46
34925;BME280;21130;51.728;8.748;2023-07-20T09:43:40;100296.59;;;22.39;68.08
34925;BME280;21130;51.728;8.748;2023-07-20T09:46:07;100292.84;;;22.88;71.16
34925;BME280;21130;51.728;8.748;2023-07-20T09:48:35;100294.84;;;23.04;72.96
34925;BME280;21130;51.728;8.748;2023-07-20T09:51:01;100289.72;;;23.71;56.14
34925;BME280;21130;51.728;8.748;2023-07-20T09:53:29;100291.53;;;23.02;54.78
34925;BME280;21130;51.728;8.748;2023-07-20T09:55:58;100287.06;;;23.66;60.32
34925;BME280;21130;51.728;8.748;2023-07-20T09:58:25;100290.59;;;23.54;56.12
34925;BME280;21130;51.728;8.748;2023-07-20T10:00:56;100290.66;;;23.28;60.59
34925;BME280;21130;51.728;8.748;2023-07-20T10:03:28;100291.34;;;23.07;64.61
34925;BME280;21130;51.728;8.748;2023-07-20T10:05:58;100290.16;;;22.65;66.81
34925;BME280;21130;51.728;8.748;2023-07-20T10:08:29;100297.63;;;21.64;97.38
34925;BME280;21130;51.728;8.748;2023-07-20T10:10:57;100298.28;;;22.40;68.74
34925;BME280;21130;51.728;8.748;2023-07-20T10:13:27;100286.81;;;22.46;63.64
34925;BME280;21130;51.728;8.748;2023-07-20T10:15:59;100289.31;;;22.82;73.51
34925;BME280;21130;51.728;8.748;2023-07-20T10:18:30;100293.63;;;22.97;67.15
34925;BME280;21130;51.728;8.748;2023-07-20T10:21:00;100294.31;;;23.20;62.62
34925;BME280;21130;51.728;8.748;2023-07-20T10:23:28;100293.00;;;23.08;58.44
34925;BME280;21130;51.728;8.748;2023-07-20T10:25:56;100291.97;;;23.95;53.54
34925;BME280;21130;51.728;8.748;2023-07-20T10:28:24;100287.47;;;23.29;61.58
34925;BME280;21130;51.728;8.748;2023-07-20T10:30:50;100294.84;;;22.12;55.66
34925;BME280;21130;51.728;8.748;2023-07-20T10:33:17;100283.28;;;21.83;68.31
34925;BME280;21130;51.728;8.748;2023-07-20T10:35:52;100289.28;;;22.38;76.08
34925;BME280;21130;51.728;8.748;2023-07-20T10:38:38;100285.88;;;23.02;72.18
34925;BME280;21130;51.728;8.748;2023-07-20T10:41:15;100287.50;;;23.03;64.78
34925;BME280;21130;51.728;8.748;2023-07-20T10:43:42;100283.16;;;22.45;66.22
34925;BME280;21130;51.728;8.748;2023-07-20T10:46:10;100284.00;;;23.24;65.82
34925;BME280;21130;51.728;8.748;2023-07-20T10:49:00;100285.09;;;23.49;52.71
34925;BME280;21130;51.728;8.748;2023-07-20T10:51:27;100275.34;;;23.85;50.13
34925;BME280;21130;51.728;8.748;2023-07-20T10:53:56;100278.53;;;23.83;52.81
34925;BME280;21130;51.728;8.748;2023-07-20T10:56:26;100280.91;;;23.64;49.68
34925;BME280;21130;51.728;8.748;2023-07-20T10:58:57;100273.69;;;22.76;54.38
34925;BME280;21130;51.728;8.748;2023-07-20T11:01:28;100284.53;;;23.00;60.45
34925;BME280;21130;51.728;8.748;2023-07-20T11:03:58;100278.03;;;22.99;54.06
34925;BME280;21130;51.728;8.748;2023-07-20T11:06:32;100283.16;;;22.71;50.99
34925;BME280;21130;51.728;8.748;2023-07-20T11:09:06;100274.00;;;22.57;56.66
34925;BME280;21130;51.728;8.748;2023-07-20T11:11:34;100274.50;;;22.94;58.74
34925;BME280;21130;51.728;8.748;2023-07-20T11:14:02;100273.63;;;23.37;51.48
34925;BME280;21130;51.728;8.748;2023-07-20T11:16:33;100274.53;;;23.11;46.79
34925;BME280;21130;51.728;8.748;2023-07-20T11:19:00;100270.66;;;23.89;46.80
34925;BME280;21130;51.728;8.748;2023-07-20T11:21:26;100273.00;;;22.79;50.10
34925;BME280;21130;51.728;8.748;2023-07-20T11:23:55;100265.50;;;22.48;47.82
34925;BME280;21130;51.728;8.748;2023-07-20T11:26:23;100270.03;;;22.75;61.95
34925;BME280;21130;51.728;8.748;2023-07-20T11:28:50;100274.16;;;22.52;52.94
34925;BME280;21130;51.728;8.748;2023-07-20T11:31:17;100269.69;;;23.20;53.30
34925;BME280;21130;51.728;8.748;2023-07-20T11:33:44;100268.66;;;23.89;50.31
34925;BME280;21130;51.728;8.748;2023-07-20T11:36:10;100265.84;;;23.72;48.00
34925;BME280;21130;51.728;8.748;2023-07-20T11:38:37;100261.63;;;23.96;51.30
34925;BME280;21130;51.728;8.748;2023-07-20T11:41:04;100258.41;;;23.59;46.61
34925;BME280;21130;51.728;8.748;2023-07-20T11:43:32;100268.09;;;23.58;45.24
34925;BME280;21130;51.728;8.748;2023-07-20T11:45:59;100258.34;;;22.77;46.25
34925;BME280;21130;51.728;8.748;2023-07-20T11:48:29;100252.19;;;23.10;46.59
34925;BME280;21130;51.728;8.748;2023-07-20T11:50:55;100256.03;;;22.61;46.61
34925;BME280;21130;51.728;8.748;2023-07-20T11:53:24;100254.25;;;22.08;52.30
34925;BME280;21130;51.728;8.748;2023-07-20T11:55:52;100250.38;;;22.79;51.12
34925;BME280;21130;51.728;8.748;2023-07-20T11:58:18;100245.38;;;23.02;49.76
34925;BME280;21130;51.728;8.748;2023-07-20T12:00:47;100246.63;;;23.39;49.87
34925;BME280;21130;51.728;8.748;2023-07-20T12:03:14;100236.69;;;23.71;48.30
34925;BME280;21130;51.728;8.748;2023-07-20T12:05:41;100246.31;;;24.47;44.34
34925;BME280;21130;51.728;8.748;2023-07-20T12:08:07;100241.19;;;24.83;42.15
34925;BME280;21130;51.728;8.748;2023-07-20T12:10:34;100235.13;;;25.26;40.36
34925;BME280;21130;51.728;8.748;2023-07-20T12:13:10;100230.66;;;25.50;39.61
34925;BME280;21130;51.728;8.748;2023-07-20T12:15:37;100235.50;;;25.04;40.90
34925;BME280;21130;51.728;8.748;2023-07-20T12:18:05;100236.09;;;25.09;39.54
34925;BME280;21130;51.728;8.748;2023-07-20T12:20:32;100235.88;;;25.60;39.82
34925;BME280;21130;51.728;8.748;2023-07-20T12:23:00;100241.44;;;25.11;40.93
34925;BME280;21130;51.728;8.748;2023-07-20T12:25:37;100234.09;;;24.26;42.24
34925;BME280;21130;51.728;8.748;2023-07-20T12:28:06;100232.03;;;23.67;42.38
34925;BME280;21130;51.728;8.748;2023-07-20T12:30:33;100233.88;;;24.61;42.41
34925;BME280;21130;51.728;8.748;2023-07-20T12:32:59;100229.84;;;24.62;42.19
34925;BME280;21130;51.728;8.748;2023-07-20T12:35:27;100225.69;;;23.70;43.55
34925;BME280;21130;51.728;8.748;2023-07-20T12:37:53;100232.09;;;23.49;43.50
34925;BME280;21130;51.728;8.748;2023-07-20T12:40:20;100222.78;;;23.49;44.05
34925;BME280;21130;51.728;8.748;2023-07-20T12:42:47;100230.88;;;23.12;42.37
34925;BME280;21130;51.728;8.748;2023-07-20T12:45:16;100228.72;;;23.18;41.95
34925;BME280;21130;51.728;8.748;2023-07-20T12:47:42;100220.03;;;23.70;44.74